sensor_id;sensor_type;location;lat;lon;timestamp;temperature;humidity
19385;DHT22;9828;54.122;17.974;2023-06-26T00:02:09;18.40;1.00
19385;DHT22;9828;54.122;17.974;2023-06-26T00:07:31;18.40;1.00
19385;DHT22;9828;54.122;17.974;2023-06-26T00:12:55;18.40;1.00
19385;DHT22;9828;54.122;17.974;2023-06-26T00:18:16;18.30;1.00
19385;DHT22;9828;54.122;17.974;2023-06-26T00:23:38;18.20;1.00
19385;DHT22;9828;54.122;17.974;2023-06-26T00:28:59;18.20;99.90
19385;DHT22;9828;54.122;17.974;2023-06-26T00:34:22;18.00;1.00
19385;DHT22;9828;54.122;17.974;2023-06-26T00:39:43;17.90;1.00
19385;DHT22;9828;54.122;17.974;2023-06-26T00:45:05;17.90;59.20
19385;DHT22;9828;54.122;17.974;2023-06-26T00:50:27;17.80;40.50
19385;DHT22;9828;54.122;17.974;2023-06-26T00:55:48;17.90;99.90
19385;DHT22;9828;54.122;17.974;2023-06-26T01:01:09;17.80;99.90
19385;DHT22;9828;54.122;17.974;2023-06-26T01:06:37;17.80;99.90
19385;DHT22;9828;54.122;17.974;2023-06-26T01:11:58;17.70;99.90
19385;DHT22;9828;54.122;17.974;2023-06-26T01:17:20;17.60;1.00
19385;DHT22;9828;54.122;17.974;2023-06-26T01:28:06;17.30;99.90
19385;DHT22;9828;54.122;17.974;2023-06-26T01:33:28;17.20;99.90
19385;DHT22;9828;54.122;17.974;2023-06-26T01:38:50;17.10;99.90
19385;DHT22;9828;54.122;17.974;2023-06-26T01:44:23;17.00;99.90
19385;DHT22;9828;54.122;17.974;2023-06-26T01:50:22;16.90;1.00
19385;DHT22;9828;54.122;17.974;2023-06-26T02:01:10;16.70;1.00
19385;DHT22;9828;54.122;17.974;2023-06-26T02:06:31;16.60;1.00
19385;DHT22;9828;54.122;17.974;2023-06-26T02:11:52;16.60;1.00
19385;DHT22;9828;54.122;17.974;2023-06-26T02:17:14;16.70;1.00
19385;DHT22;9828;54.122;17.974;2023-06-26T02:22:35;16.60;99.90
19385;DHT22;9828;54.122;17.974;2023-06-26T02:27:56;16.70;1.00
19385;DHT22;9828;54.122;17.974;2023-06-26T02:33:18;16.80;1.00
19385;DHT22;9828;54.122;17.974;2023-06-26T02:38:42;16.70;37.50
19385;DHT22;9828;54.122;17.974;2023-06-26T02:44:04;16.60;99.90
19385;DHT22;9828;54.122;17.974;2023-06-26T02:49:26;16.60;99.90
19385;DHT22;9828;54.122;17.974;2023-06-26T02:54:47;16.60;1.00
19385;DHT22;9828;54.122;17.974;2023-06-26T03:00:09;16.50;99.90
19385;DHT22;9828;54.122;17.974;2023-06-26T03:05:39;16.70;1.00
19385;DHT22;9828;54.122;17.974;2023-06-26T03:11:00;16.70;1.00
19385;DHT22;9828;54.122;17.974;2023-06-26T03:16:21;16.70;1.00
19385;DHT22;9828;54.122;17.974;2023-06-26T03:21:43;16.80;1.00
19385;DHT22;9828;54.122;17.974;2023-06-26T03:27:05;16.90;1.00
19385;DHT22;9828;54.122;17.974;2023-06-26T03:32:27;16.90;25.80
19385;DHT22;9828;54.122;17.974;2023-06-26T03:37:48;17.00;4.70
19385;DHT22;9828;54.122;17.974;2023-06-26T03:43:10;16.90;1.00
19385;DHT22;9828;54.122;17.974;2023-06-26T03:48:40;17.00;99.90
19385;DHT22;9828;54.122;17.974;2023-06-26T03:54:02;17.20;15.80
19385;DHT22;9828;54.122;17.974;2023-06-26T03:59:23;17.20;99.90
19385;DHT22;9828;54.122;17.974;2023-06-26T04:04:45;17.20;1.00
19385;DHT22;9828;54.122;17.974;2023-06-26T04:10:07;17.30;1.00
19385;DHT22;9828;54.122;17.974;2023-06-26T04:15:28;17.40;38.20
19385;DHT22;9828;54.122;17.974;2023-06-26T04:21:11;17.50;99.90
19385;DHT22;9828;54.122;17.974;2023-06-26T04:26:33;17.80;1.00
19385;DHT22;9828;54.122;17.974;2023-06-26T04:31:54;17.90;53.20
19385;DHT22;9828;54.122;17.974;2023-06-26T04:37:22;18.10;1.00
19385;DHT22;9828;54.122;17.974;2023-06-26T04:42:43;18.20;1.00
19385;DHT22;9828;54.122;17.974;2023-06-26T04:48:05;18.40;99.90
19385;DHT22;9828;54.122;17.974;2023-06-26T04:53:26;18.50;99.90
19385;DHT22;9828;54.122;17.974;2023-06-26T04:58:48;18.60;1.00
19385;DHT22;9828;54.122;17.974;2023-06-26T05:04:09;18.70;1.00
19385;DHT22;9828;54.122;17.974;2023-06-26T05:09:30;18.80;1.00
19385;DHT22;9828;54.122;17.974;2023-06-26T05:14:51;18.90;1.00
19385;DHT22;9828;54.122;17.974;2023-06-26T05:20:13;19.00;1.00
19385;DHT22;9828;54.122;17.974;2023-06-26T05:25:35;19.20;99.90
19385;DHT22;9828;54.122;17.974;2023-06-26T05:30:58;19.30;99.90
19385;DHT22;9828;54.122;17.974;2023-06-26T05:36:20;19.50;99.90
19385;DHT22;9828;54.122;17.974;2023-06-26T05:41:46;19.70;22.00
19385;DHT22;9828;54.122;17.974;2023-06-26T05:47:07;19.90;8.90
19385;DHT22;9828;54.122;17.974;2023-06-26T05:52:29;20.10;1.00
19385;DHT22;9828;54.122;17.974;2023-06-26T05:57:51;20.20;1.00
19385;DHT22;9828;54.122;17.974;2023-06-26T06:03:12;20.40;1.00
19385;DHT22;9828;54.122;17.974;2023-06-26T06:08:34;20.70;1.00
19385;DHT22;9828;54.122;17.974;2023-06-26T06:13:55;20.90;1.00
19385;DHT22;9828;54.122;17.974;2023-06-26T06:19:17;21.00;1.00
19385;DHT22;9828;54.122;17.974;2023-06-26T06:24:38;21.20;1.00
19385;DHT22;9828;54.122;17.974;2023-06-26T06:29:59;21.40;99.90
19385;DHT22;9828;54.122;17.974;2023-06-26T06:35:20;21.70;99.90
19385;DHT22;9828;54.122;17.974;2023-06-26T06:40:43;22.00;99.90
19385;DHT22;9828;54.122;17.974;2023-06-26T06:46:04;22.50;99.90
19385;DHT22;9828;54.122;17.974;2023-06-26T06:51:26;23.00;99.90
19385;DHT22;9828;54.122;17.974;2023-06-26T06:56:47;23.60;99.90
19385;DHT22;9828;54.122;17.974;2023-06-26T07:02:08;24.30;99.90
19385;DHT22;9828;54.122;17.974;2023-06-26T07:07:32;24.90;99.90
19385;DHT22;9828;54.122;17.974;2023-06-26T07:12:53;25.40;99.90
19385;DHT22;9828;54.122;17.974;2023-06-26T07:18:14;26.10;99.90
19385;DHT22;9828;54.122;17.974;2023-06-26T07:23:36;26.40;99.90
19385;DHT22;9828;54.122;17.974;2023-06-26T07:28:58;26.80;99.90
19385;DHT22;9828;54.122;17.974;2023-06-26T07:34:19;27.20;99.90
19385;DHT22;9828;54.122;17.974;2023-06-26T07:39:40;27.50;99.90
19385;DHT22;9828;54.122;17.974;2023-06-26T07:45:02;27.80;99.90
19385;DHT22;9828;54.122;17.974;2023-06-26T07:50:31;28.20;99.90
19385;DHT22;9828;54.122;17.974;2023-06-26T07:55:52;28.60;99.90
19385;DHT22;9828;54.122;17.974;2023-06-26T08:01:14;29.00;99.90
19385;DHT22;9828;54.122;17.974;2023-06-26T08:06:35;29.00;99.90
19385;DHT22;9828;54.122;17.974;2023-06-26T08:11:57;29.40;99.90
19385;DHT22;9828;54.122;17.974;2023-06-26T08:17:19;29.70;99.90
19385;DHT22;9828;54.122;17.974;2023-06-26T08:22:40;29.90;99.90
19385;DHT22;9828;54.122;17.974;2023-06-26T08:28:02;30.00;99.90
19385;DHT22;9828;54.122;17.974;2023-06-26T08:33:24;30.40;99.90
19385;DHT22;9828;54.122;17.974;2023-06-26T08:38:45;30.70;99.90
19385;DHT22;9828;54.122;17.974;2023-06-26T09:27:11;32.30;99.90
19385;DHT22;9828;54.122;17.974;2023-06-26T09:32:36;32.60;99.90
19385;DHT22;9828;54.122;17.974;2023-06-26T09:37:58;32.60;99.90
19385;DHT22;9828;54.122;17.974;2023-06-26T09:43:19;32.70;99.90
19385;DHT22;9828;54.122;17.974;2023-06-26T09:48:41;32.70;99.90
19385;DHT22;9828;54.122;17.974;2023-06-26T09:54:04;33.00;99.90
19385;DHT22;9828;54.122;17.974;2023-06-26T09:59:25;33.20;99.90
19385;DHT22;9828;54.122;17.974;2023-06-26T10:04:47;33.30;99.90
19385;DHT22;9828;54.122;17.974;2023-06-26T10:10:08;33.20;99.90
19385;DHT22;9828;54.122;17.974;2023-06-26T10:15:31;33.20;99.90
19385;DHT22;9828;54.122;17.974;2023-06-26T10:20:55;33.40;99.90
19385;DHT22;9828;54.122;17.974;2023-06-26T10:26:20;33.70;99.90
19385;DHT22;9828;54.122;17.974;2023-06-26T10:31:49;33.80;99.90
19385;DHT22;9828;54.122;17.974;2023-06-26T10:37:12;33.40;99.90
19385;DHT22;9828;54.122;17.974;2023-06-26T10:42:36;33.30;99.90
19385;DHT22;9828;54.122;17.974;2023-06-26T10:47:57;33.40;99.90
19385;DHT22;9828;54.122;17.974;2023-06-26T10:58:47;33.10;99.90
19385;DHT22;9828;54.122;17.974;2023-06-26T11:04:08;33.50;99.90
19385;DHT22;9828;54.122;17.974;2023-06-26T11:09:31;33.70;99.90
19385;DHT22;9828;54.122;17.974;2023-06-26T11:14:53;33.80;99.90
19385;DHT22;9828;54.122;17.974;2023-06-26T11:20:15;33.80;99.90
19385;DHT22;9828;54.122;17.974;2023-06-26T11:25:39;33.70;99.90
19385;DHT22;9828;54.122;17.974;2023-06-26T11:31:00;33.90;99.90
19385;DHT22;9828;54.122;17.974;2023-06-26T11:36:24;33.70;99.90
19385;DHT22;9828;54.122;17.974;2023-06-26T11:41:46;33.60;99.90
19385;DHT22;9828;54.122;17.974;2023-06-26T11:47:07;33.40;99.90
19385;DHT22;9828;54.122;17.974;2023-06-26T11:52:28;33.60;99.90
19385;DHT22;9828;54.122;17.974;2023-06-26T11:57:52;33.40;99.90
19385;DHT22;9828;54.122;17.974;2023-06-26T12:03:13;33.60;99.90
19385;DHT22;9828;54.122;17.974;2023-06-26T12:08:35;33.50;99.90
19385;DHT22;9828;54.122;17.974;2023-06-26T12:13:57;33.50;99.90
19385;DHT22;9828;54.122;17.974;2023-06-26T12:19:24;33.60;99.90
19385;DHT22;9828;54.122;17.974;2023-06-26T12:24:47;33.70;99.90
19385;DHT22;9828;54.122;17.974;2023-06-26T12:30:08;33.50;99.90
19385;DHT22;9828;54.122;17.974;2023-06-26T12:35:33;33.60;99.90
19385;DHT22;9828;54.122;17.974;2023-06-26T12:40:56;33.20;99.90
19385;DHT22;9828;54.122;17.974;2023-06-26T12:46:18;32.80;99.90
19385;DHT22;9828;54.122;17.974;2023-06-26T12:51:39;32.70;99.90
19385;DHT22;9828;54.122;17.974;2023-06-26T12:57:01;32.70;99.90
19385;DHT22;9828;54.122;17.974;2023-06-26T13:02:24;32.90;99.90
19385;DHT22;9828;54.122;17.974;2023-06-26T13:07:45;32.80;99.90
19385;DHT22;9828;54.122;17.974;2023-06-26T13:13:06;32.90;99.90
19385;DHT22;9828;54.122;17.974;2023-06-26T13:18:29;33.10;99.90
19385;DHT22;9828;54.122;17.974;2023-06-26T13:23:50;32.90;99.90
19385;DHT22;9828;54.122;17.974;2023-06-26T13:29:12;32.70;99.90
19385;DHT22;9828;54.122;17.974;2023-06-26T13:34:33;32.70;99.90
19385;DHT22;9828;54.122;17.974;2023-06-26T13:39:54;32.50;99.90
19385;DHT22;9828;54.122;17.974;2023-06-26T13:45:16;32.60;99.90
19385;DHT22;9828;54.122;17.974;2023-06-26T13:50:46;32.30;99.90
19385;DHT22;9828;54.122;17.974;2023-06-26T13:56:12;32.00;99.90
19385;DHT22;9828;54.122;17.974;2023-06-26T14:01:33;31.50;99.90
19385;DHT22;9828;54.122;17.974;2023-06-26T14:06:55;31.20;99.90
19385;DHT22;9828;54.122;17.974;2023-06-26T14:12:16;31.50;99.90
19385;DHT22;9828;54.122;17.974;2023-06-26T14:17:38;31.50;99.90
19385;DHT22;9828;54.122;17.974;2023-06-26T14:23:00;31.10;99.90
19385;DHT22;9828;54.122;17.974;2023-06-26T14:28:22;31.00;99.90
19385;DHT22;9828;54.122;17.974;2023-06-26T14:33:43;31.30;99.90
19385;DHT22;9828;54.122;17.974;2023-06-26T14:39:05;31.20;99.90
19385;DHT22;9828;54.122;17.974;2023-06-26T14:44:27;31.00;99.90
19385;DHT22;9828;54.122;17.974;2023-06-26T14:49:48;30.90;99.90
19385;DHT22;9828;54.122;17.974;2023-06-26T14:55:09;30.30;99.90
19385;DHT22;9828;54.122;17.974;2023-06-26T15:00:31;30.40;99.90
19385;DHT22;9828;54.122;17.974;2023-06-26T15:05:53;30.10;99.90
19385;DHT22;9828;54.122;17.974;2023-06-26T15:11:14;29.80;99.90
19385;DHT22;9828;54.122;17.974;2023-06-26T15:16:35;29.70;99.90
19385;DHT22;9828;54.122;17.974;2023-06-26T15:21:57;29.50;99.90
19385;DHT22;9828;54.122;17.974;2023-06-26T15:27:18;29.30;99.90
19385;DHT22;9828;54.122;17.974;2023-06-26T15:32:39;29.20;99.90
19385;DHT22;9828;54.122;17.974;2023-06-26T15:38:01;29.40;99.90
19385;DHT22;9828;54.122;17.974;2023-06-26T15:43:22;29.30;99.90
19385;DHT22;9828;54.122;17.974;2023-06-26T15:48:43;29.20;99.90
19385;DHT22;9828;54.122;17.974;2023-06-26T15:54:05;28.90;99.90
19385;DHT22;9828;54.122;17.974;2023-06-26T15:59:26;28.80;99.90
19385;DHT22;9828;54.122;17.974;2023-06-26T16:04:47;28.60;99.90
19385;DHT22;9828;54.122;17.974;2023-06-26T16:10:09;28.50;99.90
19385;DHT22;9828;54.122;17.974;2023-06-26T16:15:30;28.30;99.90
19385;DHT22;9828;54.122;17.974;2023-06-26T16:20:53;28.20;99.90
19385;DHT22;9828;54.122;17.974;2023-06-26T16:26:14;27.90;99.90
19385;DHT22;9828;54.122;17.974;2023-06-26T16:31:35;27.80;99.90
19385;DHT22;9828;54.122;17.974;2023-06-26T16:36:57;27.70;99.90
19385;DHT22;9828;54.122;17.974;2023-06-26T16:42:19;27.60;99.90
19385;DHT22;9828;54.122;17.974;2023-06-26T16:47:41;27.60;99.90
19385;DHT22;9828;54.122;17.974;2023-06-26T16:53:02;27.40;99.90
19385;DHT22;9828;54.122;17.974;2023-06-26T16:58:24;27.40;99.90
19385;DHT22;9828;54.122;17.974;2023-06-26T17:09:06;27.30;99.90
19385;DHT22;9828;54.122;17.974;2023-06-26T17:14:28;27.20;99.90
19385;DHT22;9828;54.122;17.974;2023-06-26T17:19:49;27.10;99.90
19385;DHT22;9828;54.122;17.974;2023-06-26T17:25:10;26.80;99.90
19385;DHT22;9828;54.122;17.974;2023-06-26T17:30:32;26.70;99.90
19385;DHT22;9828;54.122;17.974;2023-06-26T17:35:54;26.60;99.90
19385;DHT22;9828;54.122;17.974;2023-06-26T17:41:15;26.50;99.90
19385;DHT22;9828;54.122;17.974;2023-06-26T17:46:36;26.30;99.90
19385;DHT22;9828;54.122;17.974;2023-06-26T17:52:00;26.20;99.90
19385;DHT22;9828;54.122;17.974;2023-06-26T17:57:25;26.10;99.90
19385;DHT22;9828;54.122;17.974;2023-06-26T18:02:46;26.10;99.90
19385;DHT22;9828;54.122;17.974;2023-06-26T18:14:26;25.90;99.90
19385;DHT22;9828;54.122;17.974;2023-06-26T18:19:48;25.70;99.90
19385;DHT22;9828;54.122;17.974;2023-06-26T18:25:09;25.70;99.90
19385;DHT22;9828;54.122;17.974;2023-06-26T18:30:30;25.70;99.90
19385;DHT22;9828;54.122;17.974;2023-06-26T18:42:09;25.40;99.90
19385;DHT22;9828;54.122;17.974;2023-06-26T18:47:30;25.20;99.90
19385;DHT22;9828;54.122;17.974;2023-06-26T18:52:52;25.00;99.90
19385;DHT22;9828;54.122;17.974;2023-06-26T18:58:13;24.90;99.90
19385;DHT22;9828;54.122;17.974;2023-06-26T19:03:34;24.90;99.90
19385;DHT22;9828;54.122;17.974;2023-06-26T20:46:45;22.00;1.00
19385;DHT22;9828;54.122;17.974;2023-06-26T20:52:17;21.80;1.00
19385;DHT22;9828;54.122;17.974;2023-06-26T20:57:39;21.70;1.00
19385;DHT22;9828;54.122;17.974;2023-06-26T21:03:01;21.60;53.20
19385;DHT22;9828;54.122;17.974;2023-06-26T21:08:22;21.60;99.90
19385;DHT22;9828;54.122;17.974;2023-06-26T21:13:43;21.50;1.00
19385;DHT22;9828;54.122;17.974;2023-06-26T21:19:04;21.30;99.90
19385;DHT22;9828;54.122;17.974;2023-06-26T21:24:25;21.20;99.90
19385;DHT22;9828;54.122;17.974;2023-06-26T21:29:47;21.10;1.00
19385;DHT22;9828;54.122;17.974;2023-06-26T21:35:08;21.00;99.90
19385;DHT22;9828;54.122;17.974;2023-06-26T21:40:30;20.90;99.90
19385;DHT22;9828;54.122;17.974;2023-06-26T21:45:51;20.90;99.90
19385;DHT22;9828;54.122;17.974;2023-06-26T21:51:12;20.60;1.00
19385;DHT22;9828;54.122;17.974;2023-06-26T21:56:33;20.60;99.90
19385;DHT22;9828;54.122;17.974;2023-06-26T22:01:55;20.50;99.90
19385;DHT22;9828;54.122;17.974;2023-06-26T22:07:16;20.60;1.00
19385;DHT22;9828;54.122;17.974;2023-06-26T22:12:37;20.60;5.10
19385;DHT22;9828;54.122;17.974;2023-06-26T22:17:59;20.50;1.00
19385;DHT22;9828;54.122;17.974;2023-06-26T22:23:21;20.50;1.00
19385;DHT22;9828;54.122;17.974;2023-06-26T22:28:42;20.50;1.00
19385;DHT22;9828;54.122;17.974;2023-06-26T22:34:04;20.50;99.90
19385;DHT22;9828;54.122;17.974;2023-06-26T22:39:26;20.40;1.00
19385;DHT22;9828;54.122;17.974;2023-06-26T22:44:47;20.20;1.00
19385;DHT22;9828;54.122;17.974;2023-06-26T22:50:09;20.10;99.90
19385;DHT22;9828;54.122;17.974;2023-06-26T22:55:30;20.10;99.90
19385;DHT22;9828;54.122;17.974;2023-06-26T23:00:53;20.20;99.90
19385;DHT22;9828;54.122;17.974;2023-06-26T23:06:14;20.30;99.90
19385;DHT22;9828;54.122;17.974;2023-06-26T23:11:42;20.30;99.90
19385;DHT22;9828;54.122;17.974;2023-06-26T23:17:04;20.20;99.90
19385;DHT22;9828;54.122;17.974;2023-06-26T23:22:25;20.20;99.90
19385;DHT22;9828;54.122;17.974;2023-06-26T23:27:46;20.20;99.90
19385;DHT22;9828;54.122;17.974;2023-06-26T23:33:07;20.20;99.90
19385;DHT22;9828;54.122;17.974;2023-06-26T23:38:29;20.20;1.00
19385;DHT22;9828;54.122;17.974;2023-06-26T23:43:50;20.20;99.90
19385;DHT22;9828;54.122;17.974;2023-06-26T23:49:12;20.20;99.90
19385;DHT22;9828;54.122;17.974;2023-06-26T23:54:33;20.10;99.90
19385;DHT22;9828;54.122;17.974;2023-06-26T23:59:55;20.00;99.90
